Time;durP1;ratioP1;P1;durP2;ratioP2;P2;SDS_P1;SDS_P2;PMS_P1;PMS_P2;Temp;Humidity;BMP_temperature;BMP_pressure;BME280_temperature;BME280_humidity;BME280_pressure;Samples;Min_cycle;Max_cycle;Signal;HPM_P1;HPM_P2
2022/09/19 00:01:21;;;;;;;10.55;1.98;;;12.10;99.90;;;;;;4988262;28;20041;-86
2022/09/19 00:04:02;;;;;;;11.77;2.70;;;12.40;99.90;;;;;;4986778;28;20120;-86
2022/09/19 00:06:30;;;;;;;8.25;2.08;;;12.40;99.90;;;;;;4985220;28;20030;-88
2022/09/19 00:08:58;;;;;;;12.07;2.13;;;12.40;99.90;;;;;;4983269;28;20033;-87
2022/09/19 00:11:25;;;;;;;12.45;2.53;;;12.10;99.90;;;;;;4985282;28;20087;-88
2022/09/19 00:13:56;;;;;;;12.30;2.15;;;12.10;99.90;;;;;;4983747;28;20048;-89
2022/09/19 00:16:29;;;;;;;7.82;2.70;;;12.20;99.90;;;;;;5004714;28;20045;-88
2022/09/19 00:19:07;;;;;;;9.07;2.03;;;12.50;99.90;;;;;;5011936;28;20037;-87
2022/09/19 00:21:41;;;;;;;11.95;2.60;;;12.40;99.90;;;;;;4985372;28;20053;-85
2022/09/19 00:26:59;;;;;;;13.35;2.05;;;12.40;99.90;;;;;;5014501;28;20046;-87
2022/09/19 00:29:25;;;;;;;13.88;2.20;;;12.30;99.90;;;;;;4988763;28;20033;-89
2022/09/19 00:31:52;;;;;;;14.60;2.50;;;12.20;99.90;;;;;;4987081;28;20052;-88
2022/09/19 00:34:18;;;;;;;13.07;2.13;;;12.30;99.90;;;;;;5002894;28;20111;-87
2022/09/19 00:36:45;;;;;;;14.80;2.33;;;12.20;99.90;;;;;;4986323;28;20137;-88
2022/09/19 00:39:14;;;;;;;12.20;2.30;;;12.60;99.90;;;;;;4987186;28;20050;-86
2022/09/19 00:41:40;;;;;;;14.73;2.35;;;12.60;99.90;;;;;;5006273;28;20497;-86
2022/09/19 00:44:26;;;;;;;15.48;2.35;;;12.30;99.90;;;;;;5002431;28;20374;-86
2022/09/19 00:47:10;;;;;;;15.52;2.80;;;12.50;99.90;;;;;;4980634;28;20100;-86
2022/09/19 00:49:41;;;;;;;13.60;2.72;;;12.60;99.90;;;;;;5006712;28;20045;-88
2022/09/19 00:52:12;;;;;;;14.35;2.83;;;12.20;99.90;;;;;;4984544;28;20046;-88
2022/09/19 00:54:44;;;;;;;24.48;3.45;;;12.30;99.90;;;;;;4988056;28;20202;-88
2022/09/19 00:57:14;;;;;;;13.70;2.55;;;12.60;99.90;;;;;;4984158;28;20069;-88
2022/09/19 00:59:43;;;;;;;14.35;2.78;;;12.20;99.90;;;;;;5002159;28;20057;-87
2022/09/19 01:02:09;;;;;;;15.13;3.25;;;12.40;99.90;;;;;;4996309;28;20046;-88
2022/09/19 01:04:35;;;;;;;12.45;2.55;;;12.30;99.90;;;;;;4988075;28;20041;-88
2022/09/19 01:07:26;;;;;;;14.77;3.03;;;12.50;99.90;;;;;;5000655;28;20133;-89
2022/09/19 01:09:58;;;;;;;14.48;3.00;;;12.20;99.90;;;;;;4999138;28;20213;-88
2022/09/19 01:12:47;;;;;;;16.45;2.97;;;12.60;99.90;;;;;;5003727;28;20041;-88
2022/09/19 01:15:44;;;;;;;19.15;3.03;;;12.30;99.90;;;;;;5000464;28;20045;-88
2022/09/19 01:18:11;;;;;;;11.77;2.83;;;12.20;99.90;;;;;;5006423;28;20428;-88
2022/09/19 01:20:39;;;;;;;14.10;2.50;;;12.50;99.90;;;;;;4987184;28;20400;-88
2022/09/19 01:23:43;;;;;;;15.20;2.35;;;12.40;99.90;;;;;;4987235;28;20404;-87
2022/09/19 01:26:38;;;;;;;13.25;2.67;;;12.40;99.90;;;;;;5004961;28;20445;-86
2022/09/19 01:29:14;;;;;;;14.20;2.37;;;12.40;99.90;;;;;;4989173;28;20392;-88
2022/09/19 01:31:48;;;;;;;14.38;2.47;;;12.60;99.90;;;;;;5001293;28;20121;-87
2022/09/19 01:34:40;;;;;;;14.40;2.50;;;12.50;99.90;;;;;;5002688;28;20037;-87
2022/09/19 01:37:16;;;;;;;16.42;2.47;;;12.40;99.90;;;;;;5005435;28;20061;-88
2022/09/19 01:39:46;;;;;;;13.23;2.38;;;12.50;99.90;;;;;;5002277;28;20504;-88
2022/09/19 01:42:17;;;;;;;14.82;2.67;;;12.30;99.90;;;;;;5012599;28;20392;-88
2022/09/19 01:44:43;;;;;;;14.73;2.30;;;12.40;99.90;;;;;;4981288;28;20463;-88
2022/09/19 01:47:43;;;;;;;13.60;2.20;;;12.30;99.90;;;;;;4983442;28;20038;-87
2022/09/19 01:50:45;;;;;;;10.65;2.15;;;12.30;99.90;;;;;;4984221;28;20046;-89
2022/09/19 01:53:35;;;;;;;15.43;2.22;;;12.40;99.90;;;;;;4983237;28;20626;-89
2022/09/19 01:56:39;;;;;;;10.80;1.90;;;12.50;99.90;;;;;;5030362;28;20068;-88
2022/09/19 01:59:31;;;;;;;12.40;2.00;;;12.60;99.90;;;;;;5001152;28;20420;-87
2022/09/19 02:02:35;;;;;;;11.13;1.80;;;12.40;99.90;;;;;;5029444;28;20046;-88
2022/09/19 02:05:07;;;;;;;11.30;2.05;;;12.70;99.90;;;;;;5023234;28;20494;-88
2022/09/19 02:07:43;;;;;;;15.80;2.47;;;12.40;99.90;;;;;;4984800;28;20083;-88
2022/09/19 02:10:21;;;;;;;14.27;2.15;;;12.30;99.90;;;;;;4984883;28;20429;-89
2022/09/19 02:12:56;;;;;;;12.02;2.72;;;12.30;99.90;;;;;;5012249;28;20050;-88
2022/09/19 02:15:30;;;;;;;8.55;1.90;;;12.60;99.90;;;;;;4980255;28;20042;-87
2022/09/19 02:18:01;;;;;;;13.73;2.70;;;12.60;99.90;;;;;;4994907;28;20136;-87
2022/09/19 02:20:31;;;;;;;10.63;2.35;;;12.30;99.90;;;;;;4986848;28;20443;-88
2022/09/19 02:23:13;;;;;;;15.80;2.67;;;12.70;99.90;;;;;;4999636;28;20520;-88
2022/09/19 02:25:41;;;;;;;13.50;2.40;;;12.70;99.90;;;;;;4983938;28;20516;-90
2022/09/19 02:28:12;;;;;;;12.13;2.58;;;12.30;99.90;;;;;;5013022;28;20445;-88
2022/09/19 02:30:42;;;;;;;12.20;2.20;;;12.60;99.90;;;;;;4982598;28;20465;-88
2022/09/19 02:33:10;;;;;;;16.48;2.72;;;12.50;99.90;;;;;;5030997;28;20520;-88
2022/09/19 02:35:47;;;;;;;10.70;2.30;;;12.60;99.90;;;;;;4982480;28;20037;-88
2022/09/19 02:38:37;;;;;;;11.50;2.30;;;12.60;99.90;;;;;;4988195;28;20092;-87
2022/09/19 02:41:21;;;;;;;12.57;2.40;;;12.30;99.90;;;;;;5004081;28;20041;-89
2022/09/19 02:44:21;;;;;;;19.90;2.95;;;12.30;99.90;;;;;;4983835;28;20050;-88
2022/09/19 02:47:06;;;;;;;15.52;2.88;;;12.50;99.90;;;;;;4969538;28;20044;-88
2022/09/19 02:49:50;;;;;;;13.75;2.83;;;12.60;99.90;;;;;;5000428;28;21536;-87
2022/09/19 02:52:21;;;;;;;18.25;2.80;;;12.30;99.90;;;;;;4986585;28;20126;-87
2022/09/19 02:54:53;;;;;;;12.48;2.45;;;12.30;99.90;;;;;;4984759;28;20042;-87
2022/09/19 02:57:25;;;;;;;17.58;2.40;;;12.30;99.90;;;;;;4982840;28;20379;-86
2022/09/19 02:59:58;;;;;;;18.75;2.63;;;12.20;99.90;;;;;;5002240;28;20200;-87
2022/09/19 03:02:32;;;;;;;16.50;2.40;;;12.40;99.90;;;;;;4982912;28;20042;-86
2022/09/19 03:05:05;;;;;;;10.82;2.40;;;12.30;99.90;;;;;;4983892;28;20044;-87
2022/09/19 03:07:40;;;;;;;7.53;1.48;;;12.60;99.90;;;;;;4983466;28;20042;-88
2022/09/19 03:10:13;;;;;;;10.85;1.63;;;12.40;99.90;;;;;;4983193;28;20038;-87
2022/09/19 03:12:51;;;;;;;17.17;2.38;;;12.50;99.90;;;;;;4983439;28;20040;-87
2022/09/19 03:15:33;;;;;;;10.20;1.88;;;12.50;99.90;;;;;;4981656;28;20037;-88
2022/09/19 03:18:01;;;;;;;13.23;2.35;;;12.40;99.90;;;;;;4998904;28;21390;-89
2022/09/19 03:20:27;;;;;;;10.57;2.60;;;12.10;99.90;;;;;;4984473;28;20422;-87
2022/09/19 03:22:53;;;;;;;13.63;2.47;;;12.10;99.90;;;;;;4983251;28;20406;-88
2022/09/19 03:25:19;;;;;;;15.23;2.58;;;12.30;99.90;;;;;;4981081;28;20029;-87
2022/09/19 03:27:45;;;;;;;10.68;2.47;;;12.10;99.90;;;;;;5009751;28;20283;-88
2022/09/19 03:30:18;;;;;;;9.88;2.20;;;12.10;99.90;;;;;;4983791;28;20042;-88
2022/09/19 03:32:44;;;;;;;12.70;2.45;;;12.40;99.90;;;;;;4983449;28;20046;-87
2022/09/19 03:35:14;;;;;;;9.63;2.20;;;12.30;99.90;;;;;;4987082;28;20103;-87
2022/09/19 03:37:45;;;;;;;12.07;2.60;;;12.30;99.90;;;;;;4989328;28;20120;-87
2022/09/19 03:40:11;;;;;;;11.82;2.50;;;12.40;99.90;;;;;;4988147;28;20122;-86
2022/09/19 03:42:37;;;;;;;15.90;3.28;;;12.20;99.90;;;;;;5003632;28;20117;-86
2022/09/19 03:45:06;;;;;;;21.70;3.53;;;12.70;99.90;;;;;;5001210;28;20026;-87
2022/09/19 03:47:32;;;;;;;16.45;2.72;;;12.60;99.90;;;;;;4999006;28;20114;-87
2022/09/19 03:49:58;;;;;;;13.63;2.20;;;12.50;99.90;;;;;;4986429;28;20117;-86
2022/09/19 03:52:27;;;;;;;14.32;2.60;;;12.60;99.90;;;;;;4987174;28;20183;-85
2022/09/19 03:54:54;;;;;;;17.08;3.03;;;12.70;99.90;;;;;;5014008;28;20128;-86
2022/09/19 03:57:20;;;;;;;12.50;2.50;;;12.40;99.90;;;;;;4984973;28;20293;-87
2022/09/19 03:59:46;;;;;;;12.98;2.08;;;12.70;99.90;;;;;;4989675;28;20343;-88
2022/09/19 04:02:12;;;;;;;17.88;3.13;;;12.40;99.90;;;;;;5000045;28;20037;-87
2022/09/19 04:04:38;;;;;;;15.65;2.70;;;12.60;99.90;;;;;;4986082;28;20164;-87
2022/09/19 04:07:05;;;;;;;16.80;3.08;;;12.30;99.90;;;;;;4986621;28;20456;-88
2022/09/19 04:09:31;;;;;;;15.15;2.40;;;12.40;99.90;;;;;;5001605;28;20163;-88
2022/09/19 04:12:02;;;;;;;15.77;3.15;;;12.40;99.90;;;;;;4990654;28;20037;-88
2022/09/19 04:14:29;;;;;;;21.15;3.13;;;12.40;99.90;;;;;;5002749;28;20107;-87
2022/09/19 04:16:55;;;;;;;17.75;2.72;;;12.50;99.90;;;;;;4983030;28;20042;-89
2022/09/19 04:19:26;;;;;;;15.27;3.15;;;12.60;99.90;;;;;;4993088;28;20106;-87
2022/09/19 04:22:01;;;;;;;19.58;2.92;;;12.60;99.90;;;;;;4986949;28;20073;-88
2022/09/19 04:24:29;;;;;;;15.02;2.47;;;12.30;99.90;;;;;;4988879;28;20128;-88
2022/09/19 04:27:06;;;;;;;14.93;3.00;;;12.40;99.90;;;;;;4985239;28;20121;-88
2022/09/19 04:29:33;;;;;;;17.98;3.00;;;12.60;99.90;;;;;;4985865;28;20521;-86
2022/09/19 04:32:02;;;;;;;15.88;2.63;;;12.60;99.90;;;;;;4999151;28;20403;-86
2022/09/19 04:34:29;;;;;;;13.13;2.75;;;12.80;99.90;;;;;;4983524;28;20066;-86
2022/09/19 04:36:56;;;;;;;8.45;2.25;;;12.50;99.90;;;;;;4999318;28;20055;-85
2022/09/19 04:39:22;;;;;;;13.77;2.60;;;12.70;99.90;;;;;;4986701;28;20045;-86
2022/09/19 04:41:52;;;;;;;12.82;2.88;;;12.40;99.90;;;;;;4985938;28;20130;-86
2022/09/19 04:44:18;;;;;;;12.30;2.30;;;12.70;99.90;;;;;;4987349;28;20069;-86
2022/09/19 04:46:44;;;;;;;14.80;2.58;;;12.70;99.90;;;;;;5014754;28;20037;-87
2022/09/19 04:49:11;;;;;;;9.85;2.15;;;12.70;99.90;;;;;;4985293;28;20048;-86
2022/09/19 04:51:37;;;;;;;11.73;2.38;;;12.60;99.90;;;;;;4987187;28;20034;-87
2022/09/19 04:54:04;;;;;;;8.35;2.17;;;12.30;99.90;;;;;;4988742;28;20037;-87
2022/09/19 04:56:29;;;;;;;9.80;2.53;;;12.30;99.90;;;;;;4984068;28;20244;-86
2022/09/19 04:58:59;;;;;;;13.07;2.00;;;12.30;99.90;;;;;;5015846;28;20632;-86
2022/09/19 05:01:25;;;;;;;10.77;2.40;;;12.30;99.90;;;;;;5030364;28;20038;-86
2022/09/19 05:03:51;;;;;;;15.13;2.90;;;12.30;99.90;;;;;;5001319;28;20057;-86
2022/09/19 05:06:17;;;;;;;13.77;3.03;;;12.70;99.90;;;;;;4984343;28;20060;-86
2022/09/19 05:08:43;;;;;;;14.60;2.75;;;12.70;99.90;;;;;;4984171;28;20026;-86
2022/09/19 05:11:10;;;;;;;16.08;2.97;;;12.40;99.90;;;;;;4999784;28;20034;-86
2022/09/19 05:13:40;;;;;;;16.02;2.83;;;12.50;99.90;;;;;;4998336;28;20041;-87
2022/09/19 05:16:07;;;;;;;19.17;3.30;;;12.40;99.90;;;;;;5000289;28;20271;-87
2022/09/19 05:18:35;;;;;;;14.95;2.85;;;12.40;99.90;;;;;;4984270;28;20061;-87
2022/09/19 05:21:12;;;;;;;15.68;2.58;;;12.50;99.90;;;;;;4982512;28;20042;-86
2022/09/19 05:23:39;;;;;;;14.63;2.78;;;12.50;99.90;;;;;;4986115;28;20052;-85
2022/09/19 05:26:10;;;;;;;10.55;3.03;;;12.50;99.90;;;;;;5011731;28;20041;-87
2022/09/19 05:28:36;;;;;;;12.48;3.15;;;12.60;99.90;;;;;;4982144;28;20057;-86
2022/09/19 05:31:07;;;;;;;13.52;2.17;;;12.90;99.90;;;;;;4984078;28;20038;-86
2022/09/19 05:33:33;;;;;;;10.70;2.65;;;12.60;99.90;;;;;;4982163;28;20096;-86
2022/09/19 05:36:03;;;;;;;14.95;2.90;;;12.50;99.90;;;;;;4983924;28;20053;-86
2022/09/19 05:38:31;;;;;;;15.30;3.63;;;12.80;99.90;;;;;;5002617;28;20449;-87
2022/09/19 05:40:59;;;;;;;17.15;2.67;;;12.30;99.90;;;;;;4987440;28;20104;-86
2022/09/19 05:43:29;;;;;;;11.65;2.47;;;12.60;99.90;;;;;;4986674;28;20116;-86
2022/09/19 05:45:56;;;;;;;17.38;2.50;;;12.70;99.90;;;;;;4981426;28;20064;-87
2022/09/19 05:48:23;;;;;;;18.08;2.70;;;12.30;99.90;;;;;;4984500;28;20041;-86
2022/09/19 05:50:50;;;;;;;12.30;2.95;;;12.30;99.90;;;;;;4982642;28;20044;-86
2022/09/19 05:56:04;;;;;;;18.23;2.85;;;12.70;99.90;;;;;;4999782;28;20145;-87
2022/09/19 05:58:31;;;;;;;17.92;2.90;;;12.80;99.90;;;;;;5002496;28;20488;-86
2022/09/19 06:00:57;;;;;;;15.05;2.53;;;12.80;99.90;;;;;;4985955;28;20048;-87
2022/09/19 06:03:23;;;;;;;10.98;2.33;;;12.70;99.90;;;;;;5002558;28;20038;-86
2022/09/19 06:05:51;;;;;;;13.23;2.72;;;12.80;99.90;;;;;;4983825;28;20565;-86
2022/09/19 06:08:24;;;;;;;17.00;3.30;;;12.50;99.90;;;;;;4984749;28;20068;-85
2022/09/19 06:10:50;;;;;;;16.15;2.72;;;12.40;99.90;;;;;;4985870;28;20041;-86
2022/09/19 06:13:18;;;;;;;13.10;2.30;;;12.70;99.90;;;;;;4991887;28;20365;-86
2022/09/19 06:15:44;;;;;;;12.00;2.50;;;12.50;99.90;;;;;;4989564;28;20120;-85
2022/09/19 06:18:10;;;;;;;12.02;2.10;;;12.70;99.90;;;;;;4991179;28;20132;-86
2022/09/19 06:20:43;;;;;;;17.30;2.90;;;12.60;99.90;;;;;;4985908;28;20055;-88
2022/09/19 06:23:12;;;;;;;14.70;2.20;;;12.70;99.90;;;;;;4994257;28;20125;-87
2022/09/19 06:25:38;;;;;;;13.45;2.42;;;12.90;99.90;;;;;;4988598;28;20034;-87
2022/09/19 06:28:11;;;;;;;9.77;2.20;;;12.80;99.90;;;;;;4994645;28;20117;-86
2022/09/19 06:30:37;;;;;;;14.23;2.50;;;12.60;99.90;;;;;;5012133;28;20133;-87
2022/09/19 06:33:06;;;;;;;12.23;2.95;;;13.00;99.90;;;;;;5004880;28;20065;-85
2022/09/19 06:35:32;;;;;;;11.60;2.65;;;12.80;99.90;;;;;;5012777;28;20042;-86
2022/09/19 06:38:00;;;;;;;18.30;2.97;;;13.00;99.90;;;;;;4989680;28;20291;-87
2022/09/19 06:40:26;;;;;;;10.25;2.05;;;13.30;99.90;;;;;;4985342;28;20042;-86
2022/09/19 06:43:02;;;;;;;11.23;2.10;;;12.90;99.90;;;;;;5000757;28;20284;-86
2022/09/19 06:45:40;;;;;;;10.18;2.22;;;13.10;99.90;;;;;;4981667;28;20046;-85
2022/09/19 06:48:07;;;;;;;11.25;2.05;;;12.70;99.90;;;;;;5000965;28;20041;-85
2022/09/19 06:50:33;;;;;;;9.98;2.05;;;12.70;99.90;;;;;;5001039;28;20385;-85
2022/09/19 06:52:59;;;;;;;10.00;2.22;;;12.80;99.90;;;;;;4985991;28;20042;-85
2022/09/19 06:55:25;;;;;;;8.60;1.48;;;12.80;99.90;;;;;;4990357;28;20045;-86
2022/09/19 06:58:00;;;;;;;12.23;2.17;;;12.80;99.90;;;;;;5002907;28;20034;-86
2022/09/19 07:00:28;;;;;;;12.25;2.22;;;12.80;99.90;;;;;;4997717;28;20038;-86
2022/09/19 07:03:06;;;;;;;16.52;2.22;;;13.20;99.90;;;;;;5003623;28;20116;-86
2022/09/19 07:05:37;;;;;;;9.40;1.95;;;12.90;99.90;;;;;;4988868;28;20218;-86
2022/09/19 07:08:03;;;;;;;12.80;2.40;;;12.90;99.90;;;;;;5002320;28;20296;-86
2022/09/19 07:10:29;;;;;;;10.05;2.08;;;13.00;99.90;;;;;;4993159;28;20050;-86
2022/09/19 07:12:59;;;;;;;11.88;2.85;;;13.10;99.90;;;;;;4987284;28;20041;-86
2022/09/19 07:15:24;;;;;;;11.52;1.98;;;13.50;99.90;;;;;;4987335;28;20069;-86
2022/09/19 07:17:54;;;;;;;11.45;2.20;;;13.40;99.90;;;;;;5009491;28;20513;-86
2022/09/19 07:20:20;;;;;;;8.20;1.92;;;13.70;99.90;;;;;;4986478;28;20049;-86
2022/09/19 07:22:47;;;;;;;6.32;1.70;;;13.60;99.90;;;;;;5006161;28;20038;-87
2022/09/19 07:25:13;;;;;;;7.15;1.98;;;13.80;99.90;;;;;;4993154;28;20029;-87
2022/09/19 07:27:42;;;;;;;12.20;1.75;;;13.70;99.90;;;;;;5005865;28;20038;-87
2022/09/19 07:30:11;;;;;;;9.48;1.60;;;13.80;99.90;;;;;;5009109;28;20168;-86
2022/09/19 07:32:37;;;;;;;10.52;1.67;;;13.60;99.90;;;;;;5012728;28;20029;-87
2022/09/19 07:35:03;;;;;;;7.85;1.52;;;13.70;99.90;;;;;;5005147;28;20068;-86
2022/09/19 07:37:29;;;;;;;9.82;1.73;;;13.80;99.90;;;;;;4989246;28;20114;-87
2022/09/19 07:39:55;;;;;;;10.82;2.60;;;13.80;99.90;;;;;;4996467;28;20068;-86
2022/09/19 07:42:20;;;;;;;11.23;2.13;;;14.10;99.90;;;;;;4994329;28;20129;-86
2022/09/19 07:44:49;;;;;;;12.40;2.20;;;14.20;99.90;;;;;;4990999;28;20037;-87
2022/09/19 07:47:26;;;;;;;12.68;2.20;;;14.20;99.90;;;;;;5000649;28;20065;-86
2022/09/19 07:49:54;;;;;;;14.15;3.05;;;14.30;99.90;;;;;;4988741;28;20577;-86
2022/09/19 07:52:22;;;;;;;12.57;3.22;;;14.60;99.90;;;;;;5004015;28;20100;-86
2022/09/19 07:54:48;;;;;;;12.63;2.47;;;14.70;99.90;;;;;;4992497;28;20037;-88
2022/09/19 07:57:13;;;;;;;13.63;3.08;;;14.50;99.90;;;;;;4986579;28;20121;-87
2022/09/19 07:59:39;;;;;;;9.35;2.05;;;14.60;99.90;;;;;;4986073;28;20132;-87
2022/09/19 08:02:09;;;;;;;11.98;2.38;;;14.30;99.90;;;;;;5003369;28;20089;-87
2022/09/19 08:04:38;;;;;;;8.77;1.48;;;14.10;99.90;;;;;;4988219;28;20192;-86
2022/09/19 08:07:05;;;;;;;9.55;1.98;;;13.50;99.90;;;;;;5003684;28;20045;-85
2022/09/19 08:09:30;;;;;;;10.73;2.22;;;13.50;99.90;;;;;;5016163;28;20038;-86
2022/09/19 08:11:57;;;;;;;10.07;1.92;;;13.40;99.90;;;;;;5005853;28;20046;-87
2022/09/19 08:14:25;;;;;;;13.13;2.35;;;13.40;99.90;;;;;;5018999;28;20113;-88
2022/09/19 08:16:51;;;;;;;7.95;1.80;;;13.30;99.90;;;;;;5005589;28;20049;-87
2022/09/19 08:19:16;;;;;;;6.80;1.90;;;13.30;99.90;;;;;;5006510;28;20562;-87
2022/09/19 08:21:42;;;;;;;12.07;1.83;;;13.50;99.90;;;;;;5037718;28;20377;-87
2022/09/19 08:24:08;;;;;;;9.32;2.05;;;13.50;99.90;;;;;;4992758;28;20034;-86
2022/09/19 08:26:33;;;;;;;11.88;2.22;;;13.60;99.90;;;;;;5018747;28;20041;-87
2022/09/19 08:28:59;;;;;;;15.80;2.83;;;13.80;99.90;;;;;;4988622;28;20152;-86
2022/09/19 08:31:26;;;;;;;18.20;2.30;;;14.20;99.90;;;;;;4983169;28;20368;-87
2022/09/19 08:33:51;;;;;;;21.20;2.90;;;14.40;99.90;;;;;;4985180;28;20045;-87
2022/09/19 08:36:17;;;;;;;11.57;2.03;;;14.90;99.90;;;;;;4997027;28;20041;-87
2022/09/19 08:38:43;;;;;;;15.00;2.60;;;14.90;99.90;;;;;;4983711;28;20049;-87
2022/09/19 08:41:33;;;;;;;10.07;2.20;;;15.20;99.90;;;;;;4991715;28;20283;-86
2022/09/19 08:44:34;;;;;;;12.80;3.40;;;15.20;99.90;;;;;;4992904;28;20267;-87
2022/09/19 08:47:13;;;;;;;13.93;3.30;;;15.20;99.90;;;;;;5000166;28;20156;-87
2022/09/19 08:49:46;;;;;;;13.55;2.58;;;15.40;99.90;;;;;;4988532;28;20484;-87
2022/09/19 08:52:45;;;;;;;12.98;2.38;;;15.30;99.90;;;;;;4991617;28;20556;-87
2022/09/19 08:55:25;;;;;;;16.38;2.42;;;15.40;97.80;;;;;;4987561;28;20108;-87
2022/09/19 08:57:58;;;;;;;15.73;2.22;;;15.60;99.90;;;;;;4984926;28;20508;-87
2022/09/19 09:00:25;;;;;;;15.85;2.63;;;15.70;99.90;;;;;;4986176;28;20042;-86
2022/09/19 09:02:57;;;;;;;12.07;1.80;;;15.70;99.90;;;;;;5006778;28;20041;-87
2022/09/19 09:05:56;;;;;;;11.45;2.00;;;15.70;1.00;;;;;;5000855;28;20520;-87
2022/09/19 09:08:44;;;;;;;11.85;2.10;;;15.80;99.90;;;;;;5002043;28;20457;-87
2022/09/19 09:11:26;;;;;;;14.38;2.15;;;16.00;99.90;;;;;;5006068;28;20041;-88
2022/09/19 09:14:14;;;;;;;9.57;2.15;;;15.80;99.90;;;;;;5005911;28;20045;-88
2022/09/19 09:17:10;;;;;;;15.13;3.35;;;16.00;99.90;;;;;;5023595;28;20116;-87
2022/09/19 09:19:47;;;;;;;7.47;1.83;;;16.30;93.50;;;;;;5028204;28;20044;-88
2022/09/19 09:22:24;;;;;;;7.35;1.95;;;16.50;99.90;;;;;;5005046;28;20111;-86
2022/09/19 09:25:00;;;;;;;10.93;2.20;;;16.60;99.90;;;;;;5000618;28;20617;-87
2022/09/19 09:27:33;;;;;;;14.77;2.38;;;16.60;99.90;;;;;;4991939;28;20067;-88
2022/09/19 09:30:16;;;;;;;9.23;2.58;;;16.70;1.00;;;;;;5009062;28;20156;-87
2022/09/19 09:32:47;;;;;;;9.98;1.98;;;16.40;1.00;;;;;;5005379;28;20108;-87
2022/09/19 09:35:39;;;;;;;14.02;2.55;;;16.00;1.00;;;;;;4991749;28;20527;-87
2022/09/19 09:38:30;;;;;;;8.35;2.72;;;15.70;1.00;;;;;;4991663;28;20137;-88
2022/09/19 09:44:15;;;;;;;9.02;1.83;;;15.40;99.90;;;;;;4997344;28;20050;-87
2022/09/19 09:46:43;;;;;;;8.85;1.90;;;16.00;99.90;;;;;;4982007;28;20037;-87
2022/09/19 09:49:12;;;;;;;8.88;2.20;;;16.10;95.20;;;;;;4984059;28;20422;-87
2022/09/19 09:51:49;;;;;;;9.25;2.08;;;16.40;99.90;;;;;;4984571;28;20491;-88
2022/09/19 09:57:49;;;;;;;5.93;1.42;;;15.60;1.00;;;;;;5005362;28;20049;-87
2022/09/19 10:03:38;;;;;;;7.07;1.60;;;13.50;99.90;;;;;;5006257;28;20047;-88
2022/09/19 10:06:24;;;;;;;6.93;1.58;;;13.10;99.90;;;;;;5000024;28;20041;-86
2022/09/19 10:09:08;;;;;;;7.82;1.75;;;12.70;99.90;;;;;;5030192;28;20046;-86
2022/09/19 10:12:21;;;;;;;10.05;1.70;;;12.80;99.90;;;;;;5020460;28;20140;-86
2022/09/19 10:14:47;;;;;;;7.13;2.05;;;12.70;99.90;;;;;;4987484;28;20054;-86
2022/09/19 10:17:15;;;;;;;9.82;1.88;;;12.50;99.90;;;;;;5033231;28;20040;-89
2022/09/19 10:19:44;;;;;;;10.07;2.15;;;12.60;99.90;;;;;;4988748;28;20064;-87
2022/09/19 10:22:15;;;;;;;7.63;1.50;;;12.80;99.90;;;;;;5002070;28;20065;-88
2022/09/19 10:24:56;;;;;;;10.25;2.00;;;12.80;99.90;;;;;;5003950;28;20503;-88
2022/09/19 10:27:38;;;;;;;8.00;1.90;;;12.80;99.90;;;;;;4984963;28;20104;-87
2022/09/19 10:30:10;;;;;;;14.13;2.28;;;13.10;99.90;;;;;;5013720;28;20045;-88
2022/09/19 10:32:37;;;;;;;8.95;2.00;;;13.20;99.90;;;;;;4994049;28;20105;-88
2022/09/19 10:35:28;;;;;;;8.98;2.05;;;13.50;99.90;;;;;;5000339;28;20117;-88
2022/09/19 10:37:59;;;;;;;10.70;2.25;;;13.60;99.90;;;;;;5002262;28;20384;-87
2022/09/19 10:40:25;;;;;;;13.75;2.00;;;13.50;99.90;;;;;;5005672;28;20377;-88
2022/09/19 10:42:55;;;;;;;8.90;2.00;;;13.80;99.90;;;;;;4986669;28;20377;-87
2022/09/19 10:45:25;;;;;;;8.95;2.35;;;13.70;99.90;;;;;;4985768;28;20508;-87
2022/09/19 10:48:10;;;;;;;12.43;2.10;;;14.40;99.90;;;;;;5004162;28;20444;-85
2022/09/19 10:50:43;;;;;;;15.65;2.67;;;14.40;99.90;;;;;;4987140;28;20510;-88
2022/09/19 10:53:21;;;;;;;10.23;2.35;;;15.00;99.90;;;;;;4986044;28;20381;-88
2022/09/19 10:55:48;;;;;;;11.45;2.78;;;15.10;99.90;;;;;;4985669;28;20065;-87
2022/09/19 10:58:23;;;;;;;9.15;2.78;;;15.00;99.90;;;;;;4984789;28;20046;-88
2022/09/19 11:00:58;;;;;;;14.35;2.80;;;15.20;99.90;;;;;;4999268;28;20161;-88
2022/09/19 11:03:29;;;;;;;11.45;2.47;;;15.40;99.90;;;;;;5001992;28;20038;-88
2022/09/19 11:06:13;;;;;;;12.00;2.20;;;15.80;99.90;;;;;;4981203;28;20381;-87
2022/09/19 11:08:45;;;;;;;7.65;1.70;;;15.30;99.90;;;;;;4985987;28;20034;-89
2022/09/19 11:11:40;;;;;;;8.88;2.13;;;15.40;99.90;;;;;;5004828;28;20038;-90
2022/09/19 11:14:33;;;;;;;11.88;2.22;;;15.10;99.90;;;;;;5001431;28;20608;-90
2022/09/19 11:17:08;;;;;;;8.38;1.95;;;15.50;99.90;;;;;;5005357;28;20464;-90
2022/09/19 11:19:36;;;;;;;;;;;15.70;1.00;;;;;;5003740;28;20488;-88
2022/09/19 11:22:17;;;;;;;9.30;1.90;;;15.50;99.90;;;;;;5001926;28;20144;-89
2022/09/19 11:24:58;;;;;;;10.82;2.38;;;15.60;99.90;;;;;;4989380;28;20068;-89
2022/09/19 11:27:40;;;;;;;10.60;2.35;;;15.90;99.90;;;;;;5006209;28;20033;-89
2022/09/19 11:30:26;;;;;;;12.15;2.30;;;16.20;95.40;;;;;;5015553;28;20072;-89
2022/09/19 11:33:27;;;;;;;15.07;2.40;;;15.80;99.90;;;;;;4988637;28;20140;-89
2022/09/19 11:36:15;;;;;;;10.80;2.17;;;16.00;99.90;;;;;;4995535;28;20103;-90
2022/09/19 11:38:50;;;;;;;11.63;2.40;;;16.70;99.90;;;;;;5008962;28;20042;-89
2022/09/19 11:41:36;;;;;;;12.75;2.22;;;16.70;1.00;;;;;;5005423;28;20034;-88
2022/09/19 11:44:24;;;;;;;10.07;1.77;;;16.20;99.90;;;;;;4996052;28;20204;-87
2022/09/19 11:47:22;;;;;;;9.82;2.10;;;15.90;1.00;;;;;;5002311;28;20040;-88
2022/09/19 11:50:13;;;;;;;15.32;2.30;;;15.60;1.00;;;;;;4997998;28;20038;-88
2022/09/19 11:52:57;;;;;;;9.45;1.85;;;16.20;27.50;;;;;;5005113;28;20045;-88
2022/09/19 11:55:56;;;;;;;13.02;2.60;;;16.60;1.00;;;;;;4989652;28;20044;-88
2022/09/19 11:58:21;;;;;;;10.73;2.00;;;16.90;74.30;;;;;;4964573;28;20319;-89
2022/09/19 12:01:15;;;;;;;11.32;1.85;;;16.50;99.90;;;;;;5007153;28;20046;-89
2022/09/19 12:04:01;;;;;;;8.13;1.88;;;16.30;95.10;;;;;;5003393;28;20041;-89
2022/09/19 12:07:04;;;;;;;8.70;1.92;;;16.40;99.90;;;;;;5008509;28;20053;-88
2022/09/19 12:09:48;;;;;;;12.95;2.30;;;16.60;99.90;;;;;;4999531;28;20030;-89
2022/09/19 12:12:17;;;;;;;11.50;2.03;;;16.90;99.90;;;;;;5004378;28;20473;-87
2022/09/19 12:14:58;;;;;;;11.90;2.63;;;17.00;99.90;;;;;;5037523;28;20295;-89
2022/09/19 12:17:42;;;;;;;9.38;2.10;;;16.60;1.00;;;;;;5000548;28;20046;-88
2022/09/19 12:20:34;;;;;;;13.93;2.25;;;16.20;1.00;;;;;;4990256;28;20500;-89
2022/09/19 12:26:16;;;;;;;10.80;2.10;;;16.30;1.00;;;;;;5027942;28;20056;-90
2022/09/19 12:28:56;;;;;;;12.43;1.92;;;16.60;99.90;;;;;;4991494;28;20040;-87
2022/09/19 12:31:32;;;;;;;9.75;2.55;;;17.10;99.90;;;;;;5021953;28;20504;-86
2022/09/19 12:34:29;;;;;;;11.93;2.33;;;16.60;99.90;;;;;;4995266;28;20532;-87
2022/09/19 12:37:03;;;;;;;9.57;2.10;;;16.40;27.30;;;;;;5001962;28;20034;-88
2022/09/19 12:39:47;;;;;;;9.23;1.80;;;16.80;99.90;;;;;;5019183;28;20044;-86
2022/09/19 12:42:29;;;;;;;7.57;1.97;;;16.90;99.90;;;;;;5009208;28;20405;-88
2022/09/19 12:45:12;;;;;;;11.25;2.00;;;17.00;1.00;;;;;;5002968;28;20335;-86
2022/09/19 12:48:23;;;;;;;10.00;2.13;;;16.50;24.20;;;;;;4996397;28;20045;-91
2022/09/19 12:50:55;;;;;;;7.13;1.88;;;16.40;99.90;;;;;;5010296;28;20126;-90
2022/09/19 12:53:44;;;;;;;10.40;2.20;;;17.10;99.90;;;;;;4995111;28;20345;-90
2022/09/19 12:56:42;;;;;;;9.45;1.95;;;17.20;99.90;;;;;;5021316;28;20050;-92
2022/09/19 12:59:25;;;;;;;11.48;2.42;;;16.90;99.90;;;;;;4989098;28;20046;-91
2022/09/19 13:02:12;;;;;;;8.70;2.13;;;17.20;99.90;;;;;;4994278;28;20104;-89
2022/09/19 13:04:53;;;;;;;10.75;2.15;;;16.80;99.90;;;;;;5007301;28;20493;-91
2022/09/19 13:07:30;;;;;;;10.40;2.00;;;16.70;99.90;;;;;;5019773;28;20030;-92
2022/09/19 13:10:19;;;;;;;10.27;2.15;;;16.20;99.90;;;;;;5011116;28;20040;-91
2022/09/19 13:13:17;;;;;;;10.50;2.25;;;16.00;99.90;;;;;;5005219;28;20037;-91
2022/09/19 13:16:02;;;;;;;9.85;1.80;;;15.80;1.00;;;;;;5007055;28;20581;-91
2022/09/19 13:24:20;;;;;;;9.10;2.22;;;16.90;99.90;;;;;;5037068;28;20425;-91
2022/09/19 13:26:58;;;;;;;9.60;2.17;;;17.40;30.20;;;;;;5013011;28;20110;-88
2022/09/19 13:29:26;;;;;;;9.40;2.92;;;17.30;99.90;;;;;;5008829;28;20038;-91
2022/09/19 13:31:55;;;;;;;10.95;2.17;;;16.30;99.90;;;;;;4993761;28;20038;-89
2022/09/19 13:34:40;;;;;;;13.55;2.88;;;15.80;99.90;;;;;;5007266;28;20050;-90
2022/09/19 13:37:34;;;;;;;11.35;2.03;;;16.20;99.90;;;;;;5006593;28;20030;-89
2022/09/19 13:40:48;;;;;;;7.60;1.63;;;15.70;1.00;;;;;;5010322;28;20071;-90
2022/09/19 13:43:56;;;;;;;11.93;1.73;;;15.20;1.00;;;;;;4991948;28;20413;-94